Time;durP1;ratioP1;P1;durP2;ratioP2;P2;SDS_P1;SDS_P2;PMS_P1;PMS_P2;Temp;Humidity;BMP_temperature;BMP_pressure;BME280_temperature;BME280_humidity;BME280_pressure;Samples;Min_cycle;Max_cycle;Signal;HPM_P1;HPM_P2
2022/10/24 00:00:44;;;;;;;12.30;4.10;;;;;;;13.20;61.41;101179.41;5092942;28;20065;-78
2022/10/24 00:03:09;;;;;;;6.50;4.03;;;;;;;12.71;64.03;101182.69;5093139;28;20028;-78
2022/10/24 00:05:35;;;;;;;10.77;3.92;;;;;;;12.63;64.53;101174.59;5092560;28;20031;-79
2022/10/24 00:08:00;;;;;;;8.20;3.50;;;;;;;12.63;64.64;101190.16;5092469;28;20504;-79
2022/10/24 00:10:26;;;;;;;10.60;4.03;;;;;;;12.55;64.91;101189.84;5092724;28;20095;-80
2022/10/24 00:12:54;;;;;;;8.80;3.40;;;;;;;12.29;65.21;101152.53;5092792;28;20115;-79
2022/10/24 00:15:20;;;;;;;6.32;3.38;;;;;;;12.14;66.78;101182.13;5092804;28;20489;-79
2022/10/24 00:17:46;;;;;;;7.82;4.03;;;;;;;12.10;66.82;101171.56;5092796;28;20028;-80
2022/10/24 00:20:12;;;;;;;9.25;3.78;;;;;;;11.96;67.27;101163.25;5092452;28;20028;-79
2022/10/24 00:22:37;;;;;;;8.40;3.53;;;;;;;11.98;67.39;101161.63;5073961;28;20028;-79
2022/10/24 00:25:03;;;;;;;5.60;3.20;;;;;;;12.01;67.62;101166.91;5074340;28;20029;-79
2022/10/24 00:27:29;;;;;;;6.22;3.88;;;;;;;12.12;67.47;101164.78;5074377;28;20539;-80
2022/10/24 00:29:54;;;;;;;5.85;3.25;;;;;;;12.16;66.88;101171.84;5092007;28;20059;-79
2022/10/24 00:32:20;;;;;;;8.02;3.97;;;;;;;12.22;66.87;101168.63;5092050;28;20036;-80
2022/10/24 00:34:45;;;;;;;6.72;3.47;;;;;;;12.32;66.70;101180.25;5092589;28;20038;-79
2022/10/24 00:37:10;;;;;;;6.68;3.38;;;;;;;12.42;65.93;101172.94;5091735;28;20465;-79
2022/10/24 00:39:36;;;;;;;8.45;3.35;;;;;;;12.41;65.86;101158.22;5074257;28;20127;-79
2022/10/24 00:42:02;;;;;;;9.30;3.55;;;;;;;12.53;64.90;101163.00;5073897;28;20036;-79
2022/10/24 00:44:31;;;;;;;4.50;2.85;;;;;;;12.49;65.07;101166.28;5092624;28;20108;-82
2022/10/24 00:47:02;;;;;;;11.20;3.65;;;;;;;12.49;65.29;101163.69;5073516;28;20111;-83
2022/10/24 00:49:43;;;;;;;8.18;3.42;;;;;;;12.58;64.93;101155.41;5091090;28;20050;-83
2022/10/24 00:52:12;;;;;;;5.05;3.30;;;;;;;12.54;64.05;101136.28;5091867;28;20466;-83
2022/10/24 00:54:39;;;;;;;7.70;3.33;;;;;;;12.39;63.80;101144.31;5068911;28;20048;-83
2022/10/24 00:57:14;;;;;;;8.18;3.25;;;;;;;12.41;63.95;101147.88;5069045;28;20486;-83
2022/10/24 00:59:42;;;;;;;8.20;3.50;;;;;;;12.05;65.36;101142.03;5052162;28;20068;-83
2022/10/24 01:02:08;;;;;;;10.90;3.53;;;;;;;11.12;68.26;101094.94;5051862;28;20094;-83
2022/10/24 01:04:34;;;;;;;8.75;3.95;;;;;;;11.54;68.58;101148.50;5068889;28;20041;-83
2022/10/24 01:07:34;;;;;;;5.63;3.13;;;;;;;11.76;68.62;101152.00;5068940;28;20051;-83
2022/10/24 01:10:14;;;;;;;6.93;3.25;;;;;;;11.88;68.27;101160.31;5068868;28;20506;-83
2022/10/24 01:12:42;;;;;;;7.35;3.30;;;;;;;11.82;68.18;101158.34;5068342;28;20115;-83
2022/10/24 01:15:38;;;;;;;9.93;3.75;;;;;;;11.73;68.57;101157.06;5068546;28;20059;-84
2022/10/24 01:18:11;;;;;;;10.18;3.63;;;;;;;11.77;68.50;101162.41;5051914;28;20094;-83
2022/10/24 01:21:03;;;;;;;8.30;3.42;;;;;;;11.82;68.28;101162.63;5068698;28;20037;-83
2022/10/24 01:23:44;;;;;;;7.93;3.85;;;;;;;11.79;68.07;101152.16;5068510;28;20563;-83
2022/10/24 01:26:37;;;;;;;7.05;3.20;;;;;;;11.76;67.80;101144.25;5066794;28;20057;-83
2022/10/24 01:29:16;;;;;;;6.53;3.50;;;;;;;11.82;67.88;101158.34;5091587;28;20152;-83
2022/10/24 01:31:50;;;;;;;7.00;3.95;;;;;;;11.55;68.04;101146.78;5091436;28;20059;-83
2022/10/24 01:34:26;;;;;;;7.30;3.50;;;;;;;11.67;68.28;101165.44;5090933;28;20035;-81
2022/10/24 01:37:12;;;;;;;7.28;3.75;;;;;;;11.72;67.76;101147.53;5091586;28;20066;-81
2022/10/24 01:39:49;;;;;;;8.50;3.92;;;;;;;11.76;67.50;101144.25;5090532;28;20111;-80
2022/10/24 01:42:19;;;;;;;6.65;3.60;;;;;;;11.59;68.55;101164.19;5059223;28;20031;-81
2022/10/24 01:44:49;;;;;;;7.90;3.20;;;;;;;11.33;69.44;101149.31;5090824;28;20036;-81
2022/10/24 01:47:21;;;;;;;6.15;3.58;;;;;;;11.21;69.17;101177.19;5090672;28;20557;-81
2022/10/24 01:50:09;;;;;;;6.85;3.78;;;;;;;10.68;71.04;101166.13;5072595;28;20063;-81
2022/10/24 01:52:38;;;;;;;7.38;3.60;;;;;;;10.82;70.28;101167.66;5090924;28;20027;-81
2022/10/24 01:55:04;;;;;;;6.63;3.70;;;;;;;10.89;70.27;101166.25;5072620;28;20024;-81
2022/10/24 01:57:32;;;;;;;6.22;3.78;;;;;;;10.94;69.98;101158.72;5090568;28;20036;-81
2022/10/24 01:59:58;;;;;;;7.97;3.80;;;;;;;10.91;69.89;101163.75;5090120;28;20467;-81
2022/10/24 02:02:37;;;;;;;6.47;3.75;;;;;;;10.37;70.64;101113.03;5090539;28;20020;-81
2022/10/24 02:05:15;;;;;;;5.13;3.30;;;;;;;10.49;71.43;101154.94;5090869;28;20442;-81
2022/10/24 02:07:43;;;;;;;8.55;3.35;;;;;;;10.67;71.21;101154.03;5090416;28;20577;-81
2022/10/24 02:10:15;;;;;;;6.03;3.65;;;;;;;10.74;71.37;101163.84;5090862;28;20027;-82
2022/10/24 02:12:46;;;;;;;7.20;3.70;;;;;;;10.63;71.48;101146.94;5090195;28;20070;-81
2022/10/24 02:15:28;;;;;;;11.43;3.95;;;;;;;10.51;71.26;101124.88;5072497;28;20067;-81
2022/10/24 02:17:55;;;;;;;11.05;3.67;;;;;;;10.81;71.42;101158.13;5090358;28;20111;-81
2022/10/24 02:20:28;;;;;;;9.85;3.78;;;;;;;10.92;71.41;101152.59;5090390;28;20032;-81
2022/10/24 02:23:04;;;;;;;6.82;3.17;;;;;;;10.94;70.95;101133.78;5090164;28;20565;-81
2022/10/24 02:25:35;;;;;;;10.57;3.40;;;;;;;11.19;73.71;101154.66;5090048;28;20066;-81
2022/10/24 02:28:11;;;;;;;8.77;3.92;;;;;;;10.86;74.95;101105.81;5090497;28;20035;-81
2022/10/24 02:30:48;;;;;;;7.93;3.60;;;;;;;11.07;73.64;101155.00;5090303;28;20395;-81
2022/10/24 02:33:15;;;;;;;8.60;3.58;;;;;;;10.80;72.77;101156.38;5090057;28;20026;-81
2022/10/24 02:35:42;;;;;;;12.73;4.07;;;;;;;10.73;72.31;101145.66;5062360;28;20403;-80
2022/10/24 02:38:11;;;;;;;9.93;3.70;;;;;;;10.74;71.53;101155.19;5085964;28;20040;-81
2022/10/24 02:40:37;;;;;;;7.80;3.90;;;;;;;10.73;70.10;101149.16;5090193;28;20466;-81
2022/10/24 02:43:05;;;;;;;8.20;3.80;;;;;;;10.62;69.47;101134.84;5090059;28;20024;-81
2022/10/24 02:45:31;;;;;;;5.40;3.72;;;;;;;10.54;69.25;101144.78;5090029;28;20129;-80
2022/10/24 02:48:01;;;;;;;9.80;4.20;;;;;;;10.56;69.85;101158.69;5090242;28;20028;-80
2022/10/24 02:50:27;;;;;;;8.50;3.90;;;;;;;10.54;68.79;101154.25;5071399;28;20047;-80
2022/10/24 02:52:53;;;;;;;11.35;4.22;;;;;;;10.59;68.21;101158.84;5071975;28;20482;-78
2022/10/24 02:55:18;;;;;;;8.68;3.40;;;;;;;10.49;68.89;101133.38;5089967;28;20032;-83
2022/10/24 02:57:43;;;;;;;9.88;3.78;;;;;;;10.46;68.60;101140.97;5090208;28;20446;-81
2022/10/24 03:00:10;;;;;;;7.75;3.30;;;;;;;10.54;67.74;101167.16;5089702;28;20039;-79
2022/10/24 03:02:35;;;;;;;7.47;3.60;;;;;;;10.42;67.83;101170.91;5089031;28;20030;-79
2022/10/24 03:05:00;;;;;;;7.88;3.40;;;;;;;10.15;67.83;101152.34;5088814;28;20028;-80
2022/10/24 03:07:26;;;;;;;7.60;3.50;;;;;;;10.19;68.00;101172.31;5089867;28;20081;-80
2022/10/24 03:09:51;;;;;;;10.63;3.83;;;;;;;10.10;68.39;101177.91;5061317;28;20039;-80
2022/10/24 03:12:17;;;;;;;9.23;4.38;;;;;;;10.11;69.22;101179.69;5069167;28;20036;-82
2022/10/24 03:14:44;;;;;;;9.60;3.50;;;;;;;10.07;69.16;101157.13;5075557;28;20111;-82
2022/10/24 03:17:09;;;;;;;8.50;3.75;;;;;;;9.99;68.95;101163.59;5093653;28;20031;-82
2022/10/24 03:19:35;;;;;;;10.82;3.80;;;;;;;9.99;69.34;101164.50;5093266;28;20039;-82
2022/10/24 03:22:00;;;;;;;9.50;4.47;;;;;;;10.06;69.25;101168.25;5094219;28;20042;-83
2022/10/24 03:24:26;;;;;;;7.03;3.60;;;;;;;10.03;69.83;101160.34;5094001;28;20028;-83
2022/10/24 03:26:51;;;;;;;11.05;3.67;;;;;;;10.13;69.40;101156.53;5094393;28;20400;-83
2022/10/24 03:29:17;;;;;;;8.18;3.78;;;;;;;10.18;69.18;101144.75;5093872;28;20028;-82
2022/10/24 03:31:43;;;;;;;10.48;3.63;;;;;;;10.31;68.33;101156.56;5093857;28;20039;-83
2022/10/24 03:34:08;;;;;;;8.50;3.78;;;;;;;10.39;68.42;101167.28;5093806;28;20032;-82
2022/10/24 03:36:34;;;;;;;9.40;3.65;;;;;;;10.16;67.74;101123.16;5093787;28;20031;-82
2022/10/24 03:38:59;;;;;;;10.63;4.00;;;;;;;10.26;67.66;101152.88;5093654;28;20028;-82
2022/10/24 03:41:25;;;;;;;11.88;4.75;;;;;;;10.19;68.18;101150.00;5093533;28;20031;-82
2022/10/24 03:43:50;;;;;;;9.45;4.72;;;;;;;10.18;68.70;101173.13;5075324;28;20036;-82
2022/10/24 03:46:16;;;;;;;12.32;4.63;;;;;;;10.10;68.22;101152.09;5075434;28;20516;-82
2022/10/24 03:48:41;;;;;;;9.43;4.32;;;;;;;10.15;67.53;101149.75;5093339;28;20089;-82
2022/10/24 03:51:07;;;;;;;9.82;4.63;;;;;;;10.20;67.82;101164.69;5090135;28;20028;-81
2022/10/24 03:53:33;;;;;;;13.77;4.93;;;;;;;10.15;68.90;101157.50;5091070;28;20036;-82
2022/10/24 03:55:59;;;;;;;10.07;4.57;;;;;;;10.16;68.46;101162.72;5075270;28;20110;-82
2022/10/24 03:58:25;;;;;;;8.80;3.97;;;;;;;10.14;69.02;101158.31;5093721;28;20032;-80
2022/10/24 04:00:50;;;;;;;9.18;3.83;;;;;;;10.15;68.50;101154.94;5093210;28;20525;-80
2022/10/24 04:03:15;;;;;;;8.02;4.38;;;;;;;10.13;68.22;101148.78;5075099;28;20409;-80
2022/10/24 04:05:41;;;;;;;21.55;4.53;;;;;;;10.14;68.91;101160.88;5093382;28;20466;-82
2022/10/24 04:08:06;;;;;;;8.77;4.35;;;;;;;9.88;69.03;101117.50;5093401;28;20031;-82
2022/10/24 04:10:32;;;;;;;8.82;4.38;;;;;;;10.22;68.74;101163.84;5093412;28;20028;-82
2022/10/24 04:12:57;;;;;;;10.50;3.97;;;;;;;10.20;68.53;101167.25;5092875;28;20039;-82
2022/10/24 04:15:23;;;;;;;11.90;4.35;;;;;;;9.87;68.61;101115.75;5092942;28;20036;-80
2022/10/24 04:17:48;;;;;;;7.28;4.32;;;;;;;10.13;68.63;101162.59;5074659;28;20032;-77
2022/10/24 04:20:18;;;;;;;9.98;4.03;;;;;;;10.10;68.73;101154.69;5072809;28;20044;-80
2022/10/24 04:22:43;;;;;;;9.23;4.90;;;;;;;10.07;68.76;101151.06;5072928;28;20489;-82
2022/10/24 04:25:09;;;;;;;9.13;4.70;;;;;;;10.12;68.46;101163.41;5071503;28;20036;-83
2022/10/24 04:27:39;;;;;;;7.20;3.88;;;;;;;9.77;66.60;101140.97;5072639;28;20093;-83
2022/10/24 04:30:06;;;;;;;16.08;4.72;;;;;;;9.86;65.90;101164.66;5072543;28;20060;-85
2022/10/24 04:32:31;;;;;;;10.27;4.30;;;;;;;9.91;65.79;101173.53;5072432;28;20082;-83
2022/10/24 04:34:57;;;;;;;20.40;5.63;;;;;;;9.64;66.46;101116.28;5083934;28;20028;-84
2022/10/24 04:37:22;;;;;;;9.88;5.03;;;;;;;10.01;66.72;101172.31;5091439;28;20043;-83
2022/10/24 04:39:48;;;;;;;12.52;4.97;;;;;;;9.93;66.63;101165.84;5092457;28;20036;-84
2022/10/24 04:42:13;;;;;;;11.60;4.68;;;;;;;9.93;66.64;101171.91;5092772;28;20028;-83
2022/10/24 04:44:38;;;;;;;20.05;5.78;;;;;;;9.68;67.01;101167.16;5092966;28;20114;-84
2022/10/24 04:47:04;;;;;;;9.43;4.60;;;;;;;9.58;67.21;101177.81;5092421;28;20028;-83
2022/10/24 04:49:29;;;;;;;14.13;4.68;;;;;;;9.63;67.06;101173.78;5074510;28;20043;-86
2022/10/24 04:51:55;;;;;;;14.50;5.85;;;;;;;9.61;67.84;101172.81;5092440;28;20038;-85
2022/10/24 04:54:20;;;;;;;15.50;5.15;;;;;;;9.73;67.75;101167.41;5074467;28;20032;-84
2022/10/24 04:56:45;;;;;;;9.30;4.40;;;;;;;9.74;67.71;101176.94;5092446;28;20486;-83
2022/10/24 04:59:11;;;;;;;17.48;4.90;;;;;;;9.65;68.72;101185.06;5092170;28;20031;-84
2022/10/24 05:01:36;;;;;;;8.35;4.35;;;;;;;9.58;69.31;101188.13;5073954;28;20028;-84
2022/10/24 05:04:02;;;;;;;13.13;4.53;;;;;;;9.55;69.62;101191.44;5074184;28;20153;-83
2022/10/24 05:06:27;;;;;;;8.13;3.95;;;;;;;9.11;70.41;101129.00;5092360;28;20032;-85
2022/10/24 05:08:53;;;;;;;11.00;4.10;;;;;;;9.46;70.43;101178.94;5092155;28;20063;-85
2022/10/24 05:11:18;;;;;;;9.40;4.35;;;;;;;9.49;70.19;101162.75;5091970;28;20028;-83
2022/10/24 05:13:43;;;;;;;11.60;4.65;;;;;;;9.55;70.31;101179.41;5049350;28;20395;-85
2022/10/24 05:16:09;;;;;;;13.50;4.93;;;;;;;9.34;69.93;101158.56;5032644;28;20033;-85
2022/10/24 05:18:34;;;;;;;20.33;5.45;;;;;;;9.52;70.65;101184.44;5049442;28;20048;-85
2022/10/24 05:21:00;;;;;;;16.95;4.57;;;;;;;9.53;70.56;101185.31;5032592;28;20032;-85
2022/10/24 05:23:25;;;;;;;11.10;4.25;;;;;;;9.57;70.90;101174.38;5049199;28;20497;-84
2022/10/24 05:25:51;;;;;;;10.23;4.80;;;;;;;9.63;71.34;101184.09;5049557;28;20040;-84
2022/10/24 05:28:16;;;;;;;12.07;4.72;;;;;;;9.66;71.97;101180.00;5032377;28;20490;-84
2022/10/24 05:30:43;;;;;;;8.38;4.57;;;;;;;9.81;73.03;101197.06;5032299;28;20251;-83
2022/10/24 05:33:08;;;;;;;11.50;4.28;;;;;;;9.83;73.89;101198.94;5048970;28;20037;-84
2022/10/24 05:35:34;;;;;;;8.57;4.22;;;;;;;9.91;73.70;101196.72;5048731;28;20029;-84
2022/10/24 05:37:59;;;;;;;8.80;4.75;;;;;;;9.75;73.65;101174.44;5032373;28;20040;-84
2022/10/24 05:40:25;;;;;;;15.32;9.68;;;;;;;9.84;73.33;101197.22;5032150;28;20681;-85
2022/10/24 05:42:51;;;;;;;18.65;12.30;;;;;;;9.89;73.09;101182.88;5032157;28;20589;-85
2022/10/24 05:45:18;;;;;;;16.67;11.60;;;;;;;10.03;72.70;101204.19;5079895;28;20036;-84
2022/10/24 05:47:43;;;;;;;12.13;4.93;;;;;;;9.52;72.69;101162.91;5073320;28;20425;-83
2022/10/24 05:50:10;;;;;;;11.80;4.45;;;;;;;9.66;73.98;101217.78;5091505;28;20032;-84
2022/10/24 05:52:35;;;;;;;10.20;4.40;;;;;;;9.69;73.15;101202.47;5091121;28;20035;-84
2022/10/24 05:55:05;;;;;;;7.47;4.20;;;;;;;9.88;72.47;101222.34;5073133;28;20410;-85
2022/10/24 05:57:31;;;;;;;11.80;4.35;;;;;;;9.62;72.78;101206.44;5072983;28;20410;-84
2022/10/24 05:59:57;;;;;;;10.52;4.90;;;;;;;9.74;73.18;101220.78;5072844;28;20028;-84
2022/10/24 06:02:24;;;;;;;11.57;5.20;;;;;;;9.86;72.96;101205.94;5091201;28;20028;-84
2022/10/24 06:04:50;;;;;;;8.25;5.13;;;;;;;10.16;72.41;101222.09;5073031;28;20040;-85
2022/10/24 06:07:16;;;;;;;24.25;13.50;;;;;;;10.19;71.50;101206.78;5091037;28;20024;-84
2022/10/24 06:09:42;;;;;;;9.85;5.50;;;;;;;10.16;71.04;101190.25;5091040;28;20028;-85
2022/10/24 06:12:09;;;;;;;8.18;4.20;;;;;;;10.28;71.40;101184.78;5047987;28;20043;-85
2022/10/24 06:14:36;;;;;;;9.45;4.60;;;;;;;10.59;71.01;101212.16;5048157;28;20041;-84
2022/10/24 06:17:04;;;;;;;12.20;4.18;;;;;;;10.59;71.54;101181.16;5048325;28;20037;-84
2022/10/24 06:19:29;;;;;;;10.07;5.18;;;;;;;10.86;71.12;101217.78;5031670;28;20434;-84
2022/10/24 06:21:55;;;;;;;7.60;4.63;;;;;;;11.13;72.44;101227.66;5048168;28;20139;-84
2022/10/24 06:24:20;;;;;;;9.13;4.88;;;;;;;11.32;72.66;101213.88;5048368;28;20040;-84
2022/10/24 06:26:45;;;;;;;7.30;4.90;;;;;;;11.52;72.31;101219.06;5048391;28;20179;-84
2022/10/24 06:29:11;;;;;;;8.15;5.00;;;;;;;11.59;72.17;101221.09;5048268;28;20056;-84
2022/10/24 06:31:37;;;;;;;24.00;6.25;;;;;;;11.82;71.93;101224.72;5013587;28;20049;-84
2022/10/24 06:34:03;;;;;;;9.75;4.80;;;;;;;11.88;71.58;101232.75;5028398;28;20044;-84
2022/10/24 06:36:28;;;;;;;7.88;4.60;;;;;;;11.86;71.50;101236.09;5028193;28;20037;-84
2022/10/24 06:38:56;;;;;;;8.73;4.95;;;;;;;11.64;72.19;101248.94;5028148;28;20048;-83
2022/10/24 06:41:22;;;;;;;10.75;4.50;;;;;;;11.86;72.31;101241.25;5008324;28;20038;-84
2022/10/24 06:43:48;;;;;;;8.73;5.20;;;;;;;12.22;70.29;101233.34;5023732;28;20107;-84
2022/10/24 06:46:15;;;;;;;9.68;5.00;;;;;;;12.53;69.21;101248.47;5028409;28;20156;-83
2022/10/24 06:48:41;;;;;;;7.38;4.60;;;;;;;12.78;68.29;101236.50;5032012;28;20041;-83
2022/10/24 06:51:07;;;;;;;7.60;4.43;;;;;;;12.89;67.72;101237.81;5032301;28;20030;-84
2022/10/24 06:53:33;;;;;;;10.10;4.68;;;;;;;12.87;67.89;101236.00;5032189;28;20180;-83
2022/10/24 06:56:00;;;;;;;9.32;5.07;;;;;;;13.10;67.17;101236.91;5032185;28;20044;-84
2022/10/24 06:58:28;;;;;;;8.90;4.68;;;;;;;13.31;66.49;101236.88;5032140;28;20104;-83
2022/10/24 07:00:54;;;;;;;11.43;4.88;;;;;;;13.52;65.74;101235.91;5032351;28;20061;-83
2022/10/24 07:03:19;;;;;;;9.93;5.18;;;;;;;13.74;65.19;101233.31;5015655;28;20120;-84
2022/10/24 07:05:44;;;;;;;9.95;5.82;;;;;;;13.97;64.16;101228.03;5026099;28;20045;-85
2022/10/24 07:08:10;;;;;;;10.32;5.70;;;;;;;14.07;63.73;101218.88;5023282;28;20389;-84
2022/10/24 07:10:35;;;;;;;10.63;6.40;;;;;;;13.87;63.48;101182.72;5019800;28;20044;-84
2022/10/24 07:13:01;;;;;;;12.25;6.25;;;;;;;13.98;64.36;101214.25;5031501;28;20212;-83
2022/10/24 07:15:26;;;;;;;16.92;5.97;;;;;;;14.25;63.73;101229.00;5031624;28;20035;-84
2022/10/24 07:17:51;;;;;;;14.50;6.65;;;;;;;14.37;62.68;101203.44;5034687;28;20491;-83
2022/10/24 07:20:17;;;;;;;9.95;5.53;;;;;;;14.61;62.48;101212.84;5052532;28;20017;-83
2022/10/24 07:22:44;;;;;;;9.02;5.00;;;;;;;14.63;62.44;101193.00;5052532;28;20057;-83
2022/10/24 07:25:09;;;;;;;9.07;4.13;;;;;;;14.84;61.52;101212.75;5053803;28;20083;-84
2022/10/24 07:27:35;;;;;;;7.72;3.50;;;;;;;14.87;60.83;101192.06;5053710;28;20478;-84
2022/10/24 07:30:01;;;;;;;6.55;3.78;;;;;;;15.02;60.36;101200.31;5057530;28;20049;-83
2022/10/24 07:32:26;;;;;;;7.40;3.63;;;;;;;15.15;60.04;101198.97;5082340;28;20522;-83
2022/10/24 07:34:51;;;;;;;6.38;3.88;;;;;;;15.30;59.40;101206.34;5055845;28;20108;-83
2022/10/24 07:37:17;;;;;;;9.38;3.95;;;;;;;15.27;59.54;101190.63;5055798;28;20028;-83
2022/10/24 07:39:45;;;;;;;9.48;3.83;;;;;;;15.24;60.19;101213.97;5077561;28;20021;-83
2022/10/24 07:42:11;;;;;;;5.03;3.67;;;;;;;15.11;60.69;101214.44;5093651;28;20036;-83
2022/10/24 07:44:37;;;;;;;5.35;3.35;;;;;;;15.29;60.04;101209.78;5093950;28;20514;-83
2022/10/24 07:47:05;;;;;;;5.95;3.40;;;;;;;15.30;59.88;101208.06;5093730;28;20032;-84
2022/10/24 07:49:34;;;;;;;4.53;3.28;;;;;;;15.41;60.15;101213.59;5091785;28;20085;-83
2022/10/24 07:52:00;;;;;;;7.03;3.88;;;;;;;15.41;59.16;101169.34;5082040;28;20459;-83
2022/10/24 07:54:27;;;;;;;6.40;3.85;;;;;;;15.81;58.51;101201.69;5073124;28;20115;-83
2022/10/24 07:56:53;;;;;;;6.72;3.65;;;;;;;15.84;58.68;101188.78;5072078;28;20035;-83
2022/10/24 07:59:18;;;;;;;7.78;3.78;;;;;;;16.08;57.93;101180.72;5073502;28;20390;-83
2022/10/24 08:01:44;;;;;;;5.47;3.30;;;;;;;16.22;57.19;101175.00;5075274;28;20028;-83
2022/10/24 08:04:10;;;;;;;8.63;3.88;;;;;;;16.34;57.64;101189.19;5075216;28;20107;-83
2022/10/24 08:06:35;;;;;;;6.78;3.83;;;;;;;16.41;59.46;101182.44;5075228;28;20020;-84
2022/10/24 08:09:01;;;;;;;6.75;4.40;;;;;;;16.49;58.42;101175.66;5093406;28;20028;-83
2022/10/24 08:11:28;;;;;;;6.80;3.70;;;;;;;16.48;57.74;101173.03;5084729;28;20039;-83
2022/10/24 08:13:56;;;;;;;6.45;3.95;;;;;;;16.58;58.95;101181.94;5073018;28;20031;-84
2022/10/24 08:16:22;;;;;;;7.10;3.40;;;;;;;16.77;57.12;101196.28;5055124;28;20032;-83
2022/10/24 08:18:49;;;;;;;8.75;3.38;;;;;;;16.76;57.55;101185.00;5072857;28;20452;-83
2022/10/24 08:21:16;;;;;;;11.73;3.83;;;;;;;16.82;58.01;101168.59;5089463;28;20024;-83
2022/10/24 08:23:45;;;;;;;6.90;3.72;;;;;;;17.08;55.48;101195.28;5074583;28;20119;-82
2022/10/24 08:26:13;;;;;;;7.22;3.33;;;;;;;17.17;55.20;101192.03;5074980;28;20032;-83
2022/10/24 08:28:39;;;;;;;9.13;3.85;;;;;;;17.31;55.39;101200.13;5093038;28;20032;-83
2022/10/24 08:31:06;;;;;;;8.85;4.00;;;;;;;17.44;54.42;101196.91;5092541;28;20110;-83
2022/10/24 08:33:33;;;;;;;6.78;3.90;;;;;;;17.40;54.94;101148.09;5074567;28;20452;-83
2022/10/24 08:36:21;;;;;;;9.00;4.30;;;;;;;17.79;53.97;101182.78;5092638;28;20444;-83
2022/10/24 08:38:47;;;;;;;8.95;3.97;;;;;;;17.62;53.53;101135.47;5029890;28;20467;-83
2022/10/24 08:41:25;;;;;;;6.68;3.90;;;;;;;17.74;52.42;101113.91;5030146;28;20045;-83
2022/10/24 08:43:52;;;;;;;8.02;3.88;;;;;;;18.25;52.02;101173.16;5013430;28;20053;-84
2022/10/24 08:46:43;;;;;;;6.60;4.00;;;;;;;18.42;51.21;101170.84;5030070;28;20607;-83
2022/10/24 08:49:26;;;;;;;7.38;4.05;;;;;;;18.63;50.70;101169.44;5029938;28;20455;-84
2022/10/24 08:51:59;;;;;;;6.78;3.85;;;;;;;18.83;50.27;101160.97;5029756;28;20021;-83
2022/10/24 08:54:31;;;;;;;6.32;4.18;;;;;;;18.91;50.46;101160.25;5029746;28;20045;-82
2022/10/24 08:56:58;;;;;;;5.53;3.22;;;;;;;19.06;49.80;101154.34;5013006;28;20068;-82
2022/10/24 08:59:27;;;;;;;12.93;3.83;;;;;;;19.18;52.89;101148.38;5029727;28;20565;-82
2022/10/24 09:02:06;;;;;;;6.97;3.78;;;;;;;19.29;49.96;101151.16;5029688;28;20025;-83
2022/10/24 09:04:42;;;;;;;8.15;3.83;;;;;;;19.24;50.70;101117.06;5029729;28;20033;-82
2022/10/24 09:07:17;;;;;;;6.05;3.95;;;;;;;19.52;49.34;101130.44;5012927;28;20033;-83
2022/10/24 09:09:46;;;;;;;5.80;3.65;;;;;;;19.71;47.57;101130.63;5012310;28;20049;-83
2022/10/24 09:12:14;;;;;;;8.90;3.83;;;;;;;19.78;47.76;101121.97;5029411;28;20044;-82
2022/10/24 09:14:42;;;;;;;6.10;3.78;;;;;;;19.94;51.11;101130.91;5030740;28;20049;-82
2022/10/24 09:17:33;;;;;;;6.82;4.10;;;;;;;20.06;49.41;101131.84;5073750;28;20536;-83
2022/10/24 09:20:14;;;;;;;7.00;4.10;;;;;;;20.11;49.33;101123.19;4973547;28;20121;-82
2022/10/24 09:22:39;;;;;;;12.20;3.70;;;;;;;20.26;47.81;101121.53;4990045;28;20043;-82
2022/10/24 09:25:09;;;;;;;7.93;3.97;;;;;;;20.38;47.18;101126.88;4989906;28;20096;-82
2022/10/24 09:27:37;;;;;;;6.05;3.50;;;;;;;20.41;47.78;101115.50;4989820;28;20042;-83
2022/10/24 09:30:05;;;;;;;7.13;4.00;;;;;;;20.52;47.09;101119.97;4986882;28;20070;-82
2022/10/24 09:32:34;;;;;;;12.23;3.50;;;;;;;20.62;46.28;101120.91;4970218;28;20047;-82
2022/10/24 09:35:08;;;;;;;9.82;3.53;;;;;;;20.75;46.21;101108.75;4970467;28;20035;-82
2022/10/24 09:37:41;;;;;;;7.60;3.67;;;;;;;20.89;46.39;101107.97;4970425;28;20489;-81
2022/10/24 09:40:24;;;;;;;5.72;3.15;;;;;;;21.01;45.74;101105.38;4954141;28;20093;-82
2022/10/24 09:43:15;;;;;;;9.70;3.70;;;;;;;21.12;45.57;101093.19;4970220;28;20031;-82
2022/10/24 09:45:44;;;;;;;7.22;3.40;;;;;;;21.24;46.68;101089.69;4970279;28;20110;-83
2022/10/24 09:48:21;;;;;;;6.63;2.70;;;;;;;21.41;43.77;101086.22;4970254;28;20034;-81
2022/10/24 09:50:49;;;;;;;7.30;3.40;;;;;;;21.53;44.21;101080.13;4970048;28;20421;-82
2022/10/24 09:53:38;;;;;;;6.45;3.00;;;;;;;21.63;43.18;101076.66;4969974;28;20057;-81
2022/10/24 09:56:10;;;;;;;8.35;3.03;;;;;;;21.72;42.72;101075.78;4979650;28;20034;-82
2022/10/24 09:58:36;;;;;;;5.13;2.90;;;;;;;21.80;43.82;101060.91;5049671;28;20087;-82
2022/10/24 10:01:06;;;;;;;7.00;3.67;;;;;;;21.90;43.86;101065.28;5050918;28;20407;-81
2022/10/24 10:03:34;;;;;;;18.15;12.93;;;;;;;21.75;45.51;101034.63;5049683;28;20029;-82
2022/10/24 10:06:20;;;;;;;7.10;3.42;;;;;;;22.03;43.23;101062.66;5050674;28;20499;-81
2022/10/24 10:08:52;;;;;;;8.55;3.80;;;;;;;22.19;43.39;101060.88;5050756;28;20029;-82
2022/10/24 10:11:30;;;;;;;5.78;3.35;;;;;;;22.29;42.06;101038.94;5050647;28;20486;-82
2022/10/24 10:14:00;;;;;;;6.45;3.10;;;;;;;22.44;41.77;101046.81;5050643;28;20503;-82
2022/10/24 10:16:32;;;;;;;5.90;3.10;;;;;;;22.58;40.99;101051.16;5050650;28;20032;-83
2022/10/24 10:19:11;;;;;;;6.95;3.20;;;;;;;22.72;40.99;101041.44;5050618;28;20039;-82
2022/10/24 10:21:53;;;;;;;9.63;3.33;;;;;;;22.67;41.03;101009.03;5034967;28;20021;-76
2022/10/24 10:24:37;;;;;;;12.38;3.60;;;;;;;22.97;42.01;101030.81;5034130;28;20451;-77
2022/10/24 10:27:22;;;;;;;7.80;3.28;;;;;;;23.06;39.86;101025.47;5029745;28;20128;-75
2022/10/24 10:29:48;;;;;;;6.05;3.00;;;;;;;23.24;39.31;101019.25;5050845;28;20098;-76
2022/10/24 10:32:26;;;;;;;4.82;3.00;;;;;;;23.16;39.14;101014.94;5079410;28;20025;-77
2022/10/24 10:35:02;;;;;;;4.40;3.10;;;;;;;23.21;39.18;100998.19;5079821;28;20028;-77
2022/10/24 10:37:31;;;;;;;5.03;3.20;;;;;;;23.27;42.58;101008.69;5082474;28;20814;-76
2022/10/24 10:40:38;;;;;;;5.55;3.00;;;;;;;23.15;39.98;100973.63;5082222;28;20036;-77
2022/10/24 10:43:23;;;;;;;6.05;2.97;;;;;;;23.45;38.85;100992.75;5024291;28;20048;-78
2022/10/24 10:45:48;;;;;;;6.15;2.70;;;;;;;23.43;38.21;100962.03;5025537;28;20032;-78
2022/10/24 10:48:19;;;;;;;6.88;3.35;;;;;;;23.66;38.36;101005.75;5009764;28;20041;-74
2022/10/24 10:51:19;;;;;;;4.75;2.60;;;;;;;23.63;38.24;101000.53;5010219;28;20458;-80
2022/10/24 10:54:07;;;;;;;;;;;;;;;23.75;37.82;101000.41;4987491;28;20034;-80
2022/10/24 10:56:48;;;;;;;5.07;2.70;;;;;;;23.85;38.22;101000.31;4989681;28;19913;-82
2022/10/24 10:59:14;;;;;;;4.72;2.70;;;;;;;23.90;37.54;100998.50;4987867;28;20039;-81
2022/10/24 11:01:59;;;;;;;6.82;3.00;;;;;;;23.98;37.56;100991.44;5003443;28;20100;-81
2022/10/24 11:04:32;;;;;;;4.95;2.70;;;;;;;24.08;37.45;100992.22;5007750;28;20712;-80
2022/10/24 11:07:49;;;;;;;6.68;2.47;;;;;;;24.21;38.66;100985.91;5002813;28;20038;-73
2022/10/24 11:10:20;;;;;;;4.57;2.47;;;;;;;24.34;37.38;100968.16;4968624;28;20042;-75
2022/10/24 11:12:46;;;;;;;5.57;3.00;;;;;;;24.56;36.48;100967.88;4966700;28;20587;-73
2022/10/24 11:15:23;;;;;;;6.18;2.95;;;;;;;24.62;36.75;100977.50;4948973;28;20079;-74
2022/10/24 11:18:05;;;;;;;4.90;2.65;;;;;;;24.65;36.61;100972.19;4948516;28;20035;-74
2022/10/24 11:20:36;;;;;;;8.27;2.70;;;;;;;24.63;36.13;100969.53;4948803;28;20516;-74
2022/10/24 11:23:12;;;;;;;5.70;2.50;;;;;;;24.63;36.33;100969.53;4948772;28;20042;-75
2022/10/24 11:26:04;;;;;;;5.13;2.17;;;;;;;24.51;36.12;100960.03;4933786;29;20059;-73
2022/10/24 11:28:56;;;;;;;6.57;2.80;;;;;;;24.60;36.91;100959.03;4927160;29;20570;-73
2022/10/24 11:31:48;;;;;;;6.07;2.60;;;;;;;24.68;35.95;100946.63;4929580;29;20640;-76
2022/10/24 11:34:49;;;;;;;5.68;2.80;;;;;;;24.59;38.32;100922.13;4991645;28;20046;-76
2022/10/24 11:37:28;;;;;;;6.13;2.45;;;;;;;24.79;39.01;100942.97;4994689;28;20041;-77